AEROCLUB DE PEZENAS
AEROPORT DE BEZIERS CAP D'AGDE
34420 PORTIRAGNES
TEL: 04.67.01.57.94
contact@aeroclub-pezenas.com
WINDOW MODE | FULLSCREEN MODE
2018/05/25 16:00 LFMU 251600Z AUTO 13005KT 090V160 CAVOK 21/12 Q1015 NOSIG
DOCUMENTS OFFICIELS

REGLEMENT INTERIEUR STATUTS AGO 28/06/2015 COMPTE RENDU DU COMMITE DIRECTEUR - 03/04/2016